Time,TemperatureF,DewpointF,PressureIn,WindDirection,WindDirectionDegrees,WindSpeedMPH,WindSpeedGustMPH,Humidity,HourlyPrecipIn,Conditions,Clouds,dailyrainin,SoftwareType,DateUTC
2013-03-07 00:02:00,6.3,-4.7,30.26,SW,218,0.0,0.0,60,0.00,RA,,0.00,WeatherDisplay:10.37,2013-03-07 06:02:00,
2013-03-07 00:08:00,6.3,-4.7,30.26,SW,218,0.0,0.0,60,0.00,RA,,0.00,WeatherDisplay:10.37,2013-03-07 06:08:00,
2013-03-07 00:13:00,6.3,-4.7,30.26,SW,218,0.0,0.0,60,0.00,CLR,,0.00,WeatherDisplay:10.37,2013-03-07 06:13:00,
2013-03-07 00:18:00,6.3,-4.7,30.26,SW,218,0.0,0.0,60,0.00,CLR,,0.00,WeatherDisplay:10.37,2013-03-07 06:18:00,
2013-03-07 00:23:00,6.1,-4.9,30.26,SW,218,0.0,0.0,60,0.00,CLR,,0.00,WeatherDisplay:10.37,2013-03-07 06:23:00,
2013-03-07 00:28:00,5.9,-5.0,30.26,SW,218,0.0,0.0,60,0.00,CLR,,0.00,WeatherDisplay:10.37,2013-03-07 06:28:00,
2013-03-07 00:33:00,5.7,-5.2,30.26,SW,218,0.0,0.0,60,0.00,CLR,,0.00,WeatherDisplay:10.37,2013-03-07 06:33:00,
2013-03-07 00:38:00,5.5,-5.4,30.26,SW,218,0.0,0.0,60,0.00,CLR,,0.00,WeatherDisplay:10.37,2013-03-07 06:38:00,
2013-03-07 00:44:00,5.4,-5.5,30.26,SW,218,0.0,0.0,60,0.00,CLR,,0.00,WeatherDisplay:10.37,2013-03-07 06:44:00,
2013-03-07 00:49:00,5.0,-5.9,30.23,SW,218,0.0,0.0,60,0.00,CLR,,0.00,WeatherDisplay:10.37,2013-03-07 06:49:00,
2013-03-07 00:54:00,4.6,-6.2,30.23,SW,218,0.0,0.0,60,0.00,CLR,,0.00,WeatherDisplay:10.37,2013-03-07 06:54:00,
2013-03-07 00:59:00,4.5,-6.4,30.23,SW,218,0.0,0.0,60,0.00,CLR,,0.00,WeatherDisplay:10.37,2013-03-07 06:59:00,
2013-03-07 01:05:00,4.1,-6.7,30.26,SW,218,0.0,0.0,60,0.00,CLR,,0.00,WeatherDisplay:10.37,2013-03-07 07:05:00,
2013-03-07 01:10:00,3.9,-6.9,30.26,SW,218,0.0,0.0,60,0.00,CLR,,0.00,WeatherDisplay:10.37,2013-03-07 07:10:00,
2013-03-07 01:15:00,3.7,-7.1,30.26,SW,218,0.0,0.0,60,0.00,CLR,,0.00,WeatherDisplay:10.37,2013-03-07 07:15:00,
2013-03-07 01:21:00,3.6,-7.2,30.26,SW,218,0.0,0.0,60,0.00,CLR,,0.00,WeatherDisplay:10.37,2013-03-07 07:21:00,
2013-03-07 01:26:00,3.2,-7.6,30.26,SW,218,0.0,0.0,60,0.00,CLR,,0.00,WeatherDisplay:10.37,2013-03-07 07:26:00,
2013-03-07 01:31:00,3.0,-7.8,30.26,SW,218,0.0,0.0,60,0.00,CLR,,0.00,WeatherDisplay:10.37,2013-03-07 07:31:00,
2013-03-07 01:36:00,2.8,-7.9,30.26,SW,218,0.0,0.0,60,0.00,CLR,,0.00,WeatherDisplay:10.37,2013-03-07 07:36:00,
2013-03-07 01:41:00,2.8,-7.9,30.26,SW,218,0.0,0.0,60,0.00,CLR,,0.00,WeatherDisplay:10.37,2013-03-07 07:41:00,
2013-03-07 01:46:00,2.7,-8.1,30.26,SW,218,0.0,0.0,60,0.00,CLR,,0.00,WeatherDisplay:10.37,2013-03-07 07:46:00,
2013-03-07 01:52:00,2.5,-8.3,30.26,SW,218,0.0,0.0,60,0.00,CLR,,0.00,WeatherDisplay:10.37,2013-03-07 07:52:00,
2013-03-07 01:57:00,2.3,-8.4,30.26,SW,218,0.0,0.0,60,0.00,CLR,,0.00,WeatherDisplay:10.37,2013-03-07 07:57:00,
2013-03-07 02:02:00,2.1,-8.6,30.26,SW,218,0.0,0.0,60,0.00,CLR,,0.00,WeatherDisplay:10.37,2013-03-07 08:02:00,
2013-03-07 02:07:00,1.9,-8.8,30.26,SW,218,0.0,0.0,60,0.00,CLR,,0.00,WeatherDisplay:10.37,2013-03-07 08:07:00,
2013-03-07 02:12:00,1.9,-8.8,30.26,SW,218,0.0,0.0,60,0.00,CLR,,0.00,WeatherDisplay:10.37,2013-03-07 08:12:00,
2013-03-07 02:17:00,1.8,-8.9,30.26,SW,218,0.0,0.0,60,0.00,CLR,,0.00,WeatherDisplay:10.37,2013-03-07 08:17:00,
2013-03-07 02:22:00,1.6,-9.1,30.26,SW,218,0.0,0.0,60,0.00,CLR,,0.00,WeatherDisplay:10.37,2013-03-07 08:22:00,
2013-03-07 02:28:00,1.6,-9.1,30.26,SW,218,0.0,0.0,60,0.00,CLR,,0.00,WeatherDisplay:10.37,2013-03-07 08:28:00,
2013-03-07 02:33:00,1.6,-9.1,30.26,SW,218,0.0,0.0,60,0.00,CLR,,0.00,WeatherDisplay:10.37,2013-03-07 08:33:00,
2013-03-07 02:38:00,1.4,-9.3,30.26,SW,218,0.0,0.0,60,0.00,CLR,,0.00,WeatherDisplay:10.37,2013-03-07 08:38:00,
2013-03-07 02:43:00,1.2,-9.5,30.26,SW,218,0.0,0.0,60,0.00,CLR,,0.00,WeatherDisplay:10.37,2013-03-07 08:43:00,
2013-03-07 02:48:00,1.0,-9.6,30.26,SW,218,0.0,0.0,60,0.00,CLR,,0.00,WeatherDisplay:10.37,2013-03-07 08:48:00,
2013-03-07 02:54:00,0.7,-10.0,30.26,SW,218,0.0,0.0,60,0.00,CLR,,0.00,WeatherDisplay:10.37,2013-03-07 08:54:00,
2013-03-07 02:59:00,0.7,-10.0,30.26,SW,218,0.0,0.0,60,0.00,CLR,,0.00,WeatherDisplay:10.37,2013-03-07 08:59:00,
2013-03-07 03:04:00,0.7,-10.0,30.26,SW,218,0.0,0.0,60,0.00,CLR,,0.00,WeatherDisplay:10.37,2013-03-07 09:04:00,
2013-03-07 03:09:00,0.7,-10.0,30.26,SW,218,0.0,0.0,60,0.00,CLR,,0.00,WeatherDisplay:10.37,2013-03-07 09:09:00,
2013-03-07 03:14:00,0.5,-10.1,30.26,SW,218,0.0,0.0,60,0.00,CLR,,0.00,WeatherDisplay:10.37,2013-03-07 09:14:00,
2013-03-07 03:19:00,0.3,-10.3,30.26,SW,218,0.0,0.0,60,0.00,CLR,,0.00,WeatherDisplay:10.37,2013-03-07 09:19:00,
2013-03-07 03:24:00,0.3,-10.3,30.26,SW,218,0.0,0.0,60,0.00,CLR,,0.00,WeatherDisplay:10.37,2013-03-07 09:24:00,
2013-03-07 03:29:00,0.3,-10.3,30.26,SW,218,0.0,0.0,60,0.00,CLR,,0.00,WeatherDisplay:10.37,2013-03-07 09:29:00,
2013-03-07 03:34:00,0.3,-10.3,30.26,SW,218,0.0,0.0,60,0.00,CLR,,0.00,WeatherDisplay:10.37,2013-03-07 09:34:00,
2013-03-07 03:40:00,0.3,-10.3,30.26,SW,218,0.0,0.0,60,0.00,CLR,,0.00,WeatherDisplay:10.37,2013-03-07 09:40:00,
2013-03-07 03:45:00,0.1,-10.5,30.26,SW,218,0.0,0.0,60,0.00,CLR,,0.00,WeatherDisplay:10.37,2013-03-07 09:45:00,
2013-03-07 03:50:00,0.1,-10.5,30.26,SW,218,0.0,0.0,60,0.00,CLR,,0.00,WeatherDisplay:10.37,2013-03-07 09:50:00,
2013-03-07 03:56:00,0.0,-10.7,30.26,SW,218,0.0,0.0,60,0.00,CLR,,0.00,WeatherDisplay:10.37,2013-03-07 09:56:00,
2013-03-07 04:01:00,0.0,-10.7,30.26,SW,218,0.0,0.0,60,0.00,CLR,,0.00,WeatherDisplay:10.37,2013-03-07 10:01:00,
2013-03-07 04:06:00,-0.4,-11.0,30.26,SW,218,0.0,0.0,60,0.00,CLR,,0.00,WeatherDisplay:10.37,2013-03-07 10:06:00,
2013-03-07 04:11:00,-0.6,-11.2,30.26,SW,218,0.0,0.0,60,0.00,CLR,,0.00,WeatherDisplay:10.37,2013-03-07 10:11:00,
2013-03-07 04:16:00,-0.9,-11.5,30.26,SW,218,0.0,0.0,60,0.00,CLR,,0.00,WeatherDisplay:10.37,2013-03-07 10:16:00,
2013-03-07 04:22:00,-0.9,-11.5,30.26,SW,218,0.0,0.0,60,0.00,CLR,,0.00,WeatherDisplay:10.37,2013-03-07 10:22:00,
2013-03-07 04:27:00,-1.1,-11.7,30.26,SW,218,0.0,0.0,60,0.00,CLR,,0.00,WeatherDisplay:10.37,2013-03-07 10:27:00,
2013-03-07 04:32:00,-1.1,-11.7,30.26,SW,218,0.0,0.0,60,0.00,CLR,,0.00,WeatherDisplay:10.37,2013-03-07 10:32:00,
2013-03-07 04:37:00,-1.3,-11.8,30.26,SW,218,0.0,0.0,60,0.00,CLR,,0.00,WeatherDisplay:10.37,2013-03-07 10:37:00,
2013-03-07 04:42:00,-1.5,-12.0,30.26,SW,218,0.0,0.0,60,0.00,CLR,,0.00,WeatherDisplay:10.37,2013-03-07 10:42:00,
2013-03-07 04:47:00,-1.7,-12.2,30.26,SW,218,0.0,0.0,60,0.00,CLR,,0.00,WeatherDisplay:10.37,2013-03-07 10:47:00,
2013-03-07 04:52:00,-1.8,-12.4,30.26,SW,218,0.0,0.0,60,0.00,CLR,,0.00,WeatherDisplay:10.37,2013-03-07 10:52:00,
2013-03-07 04:57:00,-1.8,-12.4,30.26,SW,218,0.0,0.0,60,0.00,CLR,,0.00,WeatherDisplay:10.37,2013-03-07 10:57:00,
2013-03-07 05:03:00,-1.8,-12.4,30.26,SW,218,0.0,0.0,60,0.00,CLR,,0.00,WeatherDisplay:10.37,2013-03-07 11:03:00,
2013-03-07 05:08:00,-2.0,-12.5,30.26,SW,218,0.0,0.0,60,0.00,CLR,,0.00,WeatherDisplay:10.37,2013-03-07 11:08:00,
2013-03-07 05:13:00,-2.2,-12.7,30.26,SW,218,0.0,0.0,60,0.00,CLR,,0.00,WeatherDisplay:10.37,2013-03-07 11:13:00,
2013-03-07 05:18:00,-2.2,-12.7,30.29,SW,218,0.0,0.0,60,0.00,CLR,,0.00,WeatherDisplay:10.37,2013-03-07 11:18:00,
2013-03-07 05:23:00,-2.2,-12.7,30.29,SW,218,0.0,0.0,60,0.00,CLR,,0.00,WeatherDisplay:10.37,2013-03-07 11:23:00,
2013-03-07 05:28:00,-2.2,-12.7,30.29,SW,218,0.0,0.0,60,0.00,CLR,,0.00,WeatherDisplay:10.37,2013-03-07 11:28:00,
2013-03-07 05:34:00,-2.4,-12.9,30.29,SW,218,0.0,0.0,60,0.00,CLR,,0.00,WeatherDisplay:10.37,2013-03-07 11:34:00,
2013-03-07 05:39:00,-2.6,-13.0,30.29,SW,218,0.0,0.0,60,0.00,CLR,,0.00,WeatherDisplay:10.37,2013-03-07 11:39:00,
2013-03-07 05:44:00,-2.6,-13.0,30.29,SW,218,0.0,0.0,60,0.00,CLR,,0.00,WeatherDisplay:10.37,2013-03-07 11:44:00,
2013-03-07 05:49:00,-2.9,-13.4,30.29,SW,218,0.0,0.0,60,0.00,CLR,,0.00,WeatherDisplay:10.37,2013-03-07 11:49:00,
2013-03-07 05:55:00,-3.3,-13.7,30.29,SW,218,0.0,0.0,60,0.00,CLR,,0.00,WeatherDisplay:10.37,2013-03-07 11:55:00,
2013-03-07 06:00:00,-3.5,-13.9,30.29,SW,218,0.0,0.0,60,0.00,CLR,,0.00,WeatherDisplay:10.37,2013-03-07 12:00:00,
2013-03-07 06:05:00,-3.6,-14.1,30.29,SW,218,0.0,0.0,60,0.00,CLR,,0.00,WeatherDisplay:10.37,2013-03-07 12:05:00,
2013-03-07 06:11:00,-3.8,-14.2,30.29,SW,218,0.0,0.0,60,0.00,CLR,,0.00,WeatherDisplay:10.37,2013-03-07 12:11:00,
2013-03-07 06:16:00,-4.0,-14.4,30.29,SW,218,0.0,0.0,60,0.00,CLR,,0.00,WeatherDisplay:10.37,2013-03-07 12:16:00,
2013-03-07 06:21:00,-4.2,-14.6,30.29,SW,218,0.0,0.0,60,0.00,CLR,,0.00,WeatherDisplay:10.37,2013-03-07 12:21:00,
2013-03-07 06:27:00,-4.4,-14.7,30.29,SW,218,0.0,0.0,60,0.00,CLR,,0.00,WeatherDisplay:10.37,2013-03-07 12:27:00,
2013-03-07 06:32:00,-4.4,-14.7,30.29,SW,218,0.0,0.0,60,0.00,CLR,,0.00,WeatherDisplay:10.37,2013-03-07 12:32:00,
2013-03-07 06:37:00,-4.7,-15.1,30.29,SW,218,0.0,0.0,60,0.00,CLR,,0.00,WeatherDisplay:10.37,2013-03-07 12:37:00,
2013-03-07 06:42:00,-4.7,-15.1,30.29,SW,218,0.0,0.0,60,0.00,CLR,,0.00,WeatherDisplay:10.37,2013-03-07 12:42:00,
2013-03-07 06:47:00,-4.7,-15.1,30.29,SW,218,0.0,0.0,60,0.00,CLR,,0.00,WeatherDisplay:10.37,2013-03-07 12:47:00,
2013-03-07 06:53:00,-4.5,-14.9,30.29,SW,218,0.0,0.0,60,0.00,CLR,,0.00,WeatherDisplay:10.37,2013-03-07 12:53:00,
2013-03-07 06:58:00,-4.2,-14.6,30.29,SW,218,0.0,0.0,60,0.00,CLR,,0.00,WeatherDisplay:10.37,2013-03-07 12:58:00,
2013-03-07 07:03:00,-3.8,-14.2,30.29,SW,218,0.0,0.0,60,0.00,CLR,,0.00,WeatherDisplay:10.37,2013-03-07 13:03:00,
2013-03-07 07:08:00,-3.1,-13.6,30.29,SW,218,0.0,0.0,60,0.00,CLR,,0.00,WeatherDisplay:10.37,2013-03-07 13:08:00,
2013-03-07 07:13:00,-2.2,-12.7,30.29,SW,218,0.0,0.0,60,0.00,CLR,,0.00,WeatherDisplay:10.37,2013-03-07 13:13:00,
2013-03-07 07:18:00,-0.9,-11.5,30.29,SW,218,0.0,0.0,60,0.00,CLR,,0.00,WeatherDisplay:10.37,2013-03-07 13:18:00,
2013-03-07 07:23:00,0.0,-10.7,30.29,SW,218,0.0,0.0,60,0.00,CLR,,0.00,WeatherDisplay:10.37,2013-03-07 13:23:00,
2013-03-07 07:29:00,0.7,-10.0,30.29,SW,218,0.0,0.0,60,0.00,CLR,,0.00,WeatherDisplay:10.37,2013-03-07 13:29:00,
2013-03-07 07:34:00,1.4,-9.3,30.26,SW,218,0.0,0.0,60,0.00,CLR,,0.00,WeatherDisplay:10.37,2013-03-07 13:34:00,
2013-03-07 07:39:00,2.1,-8.6,30.26,SW,218,0.0,0.0,60,0.00,CLR,,0.00,WeatherDisplay:10.37,2013-03-07 13:39:00,
2013-03-07 07:45:00,2.8,-7.9,30.26,SW,218,0.0,0.0,60,0.00,CLR,,0.00,WeatherDisplay:10.37,2013-03-07 13:45:00,
2013-03-07 07:50:00,3.4,-7.4,30.29,SW,218,0.0,0.0,60,0.00,CLR,,0.00,WeatherDisplay:10.37,2013-03-07 13:50:00,
2013-03-07 07:55:00,3.9,-6.9,30.29,ESE,113,0.0,0.0,60,0.00,CLR,,0.00,WeatherDisplay:10.37,2013-03-07 13:55:00,
2013-03-07 08:00:00,4.3,-6.6,30.29,ENE,72,0.0,0.0,60,0.00,CLR,,0.00,WeatherDisplay:10.37,2013-03-07 14:00:00,
2013-03-07 08:05:00,5.2,-5.7,30.26,ENE,74,0.0,0.0,60,0.00,CLR,,0.00,WeatherDisplay:10.37,2013-03-07 14:05:00,
2013-03-07 08:11:00,6.1,-4.9,30.26,NE,36,0.0,0.0,60,0.00,CLR,,0.00,WeatherDisplay:10.37,2013-03-07 14:11:00,
2013-03-07 08:16:00,7.0,-4.0,30.26,NE,36,0.0,0.0,60,0.00,CLR,,0.00,WeatherDisplay:10.37,2013-03-07 14:16:00,
2013-03-07 08:21:00,8.1,-3.0,30.29,NE,36,0.0,0.0,60,0.00,CLR,,0.00,WeatherDisplay:10.37,2013-03-07 14:21:00,
2013-03-07 08:26:00,9.5,-1.6,30.29,NE,36,0.0,0.0,60,0.00,CLR,,0.00,WeatherDisplay:10.37,2013-03-07 14:26:00,
2013-03-07 08:31:00,10.9,-0.2,30.29,NE,36,0.0,0.0,60,0.00,CLR,,0.00,WeatherDisplay:10.37,2013-03-07 14:31:00,
2013-03-07 08:37:00,12.0,0.8,30.29,East,83,0.0,0.0,60,0.00,CLR,,0.00,WeatherDisplay:10.37,2013-03-07 14:37:00,
2013-03-07 08:42:00,12.9,1.6,30.29,NNE,16,0.0,0.0,60,0.00,CLR,,0.00,WeatherDisplay:10.37,2013-03-07 14:42:00,
2013-03-07 08:47:00,13.5,2.1,30.29,NNE,16,0.0,0.0,60,0.00,CLR,,0.00,WeatherDisplay:10.37,2013-03-07 14:47:00,
2013-03-07 08:52:00,14.2,3.9,30.29,NE,50,0.0,0.0,63,0.00,CLR,,0.00,WeatherDisplay:10.37,2013-03-07 14:52:00,
2013-03-07 08:58:00,14.9,4.6,30.29,East,84,2.7,2.7,63,0.00,CLR,,0.00,WeatherDisplay:10.37,2013-03-07 14:58:00,
2013-03-07 09:03:00,15.6,4.9,30.29,ENE,64,2.7,0.0,62,0.00,CLR,,0.00,WeatherDisplay:10.37,2013-03-07 15:03:00,
2013-03-07 09:08:00,16.9,5.7,30.29,ENE,73,2.3,0.0,61,0.00,CLR,,0.00,WeatherDisplay:10.37,2013-03-07 15:08:00,
2013-03-07 09:13:00,17.6,6.1,30.29,East,82,2.3,0.0,60,0.00,CLR,,0.00,WeatherDisplay:10.37,2013-03-07 15:13:00,
2013-03-07 09:19:00,18.7,6.7,30.29,ENE,77,3.5,0.0,59,0.00,CLR,,0.00,WeatherDisplay:10.37,2013-03-07 15:19:00,
2013-03-07 09:24:00,19.6,7.2,30.29,ENE,73,3.5,3.5,58,0.00,CLR,,0.00,WeatherDisplay:10.37,2013-03-07 15:24:00,
2013-03-07 09:29:00,20.3,7.5,30.29,ENE,60,3.5,3.5,57,0.00,CLR,,0.00,WeatherDisplay:10.37,2013-03-07 15:29:00,
2013-03-07 09:34:00,21.2,8.3,30.29,ENE,70,0.0,0.0,57,0.00,CLR,,0.00,WeatherDisplay:10.37,2013-03-07 15:34:00,
2013-03-07 09:39:00,22.3,8.9,30.29,NW,323,0.0,0.0,56,0.00,CLR,,0.00,WeatherDisplay:10.37,2013-03-07 15:39:00,
2013-03-07 09:45:00,23.5,9.7,30.29,NW,318,2.3,0.0,55,0.00,CLR,,0.00,WeatherDisplay:10.37,2013-03-07 15:45:00,
2013-03-07 09:50:00,24.4,10.2,30.29,NW,318,0.0,0.0,54,0.00,CLR,,0.00,WeatherDisplay:10.37,2013-03-07 15:50:00,
2013-03-07 09:55:00,25.7,10.9,30.29,WNW,296,3.5,3.5,53,0.00,CLR,,0.00,WeatherDisplay:10.37,2013-03-07 15:55:00,
2013-03-07 10:00:00,26.6,11.7,30.29,WSW,239,0.0,0.0,53,0.00,CLR,,0.00,WeatherDisplay:10.37,2013-03-07 16:00:00,
2013-03-07 10:05:00,27.5,12.2,30.29,WSW,239,0.0,0.0,52,0.00,CLR,,0.00,WeatherDisplay:10.37,2013-03-07 16:05:00,
2013-03-07 10:10:00,28.6,12.7,30.29,ENE,69,0.0,0.0,51,0.00,CLR,,0.00,WeatherDisplay:10.37,2013-03-07 16:10:00,
2013-03-07 10:15:00,29.7,13.7,30.29,West,273,3.5,3.5,51,0.00,CLR,,0.00,WeatherDisplay:10.37,2013-03-07 16:15:00,
2013-03-07 10:21:00,30.2,14.2,30.29,WNW,295,2.3,0.0,51,0.00,CLR,,0.00,WeatherDisplay:10.37,2013-03-07 16:21:00,
2013-03-07 10:26:00,31.5,14.9,30.29,NNW,343,0.0,0.0,50,0.00,CLR,,0.00,WeatherDisplay:10.37,2013-03-07 16:26:00,
2013-03-07 10:31:00,32.2,15.6,30.29,NNE,15,3.5,3.5,50,0.00,CLR,,0.00,WeatherDisplay:10.37,2013-03-07 16:31:00,
2013-03-07 10:37:00,32.5,15.9,30.29,NNW,329,0.0,0.0,50,0.01,RA,,0.01,WeatherDisplay:10.37,2013-03-07 16:37:00,
2013-03-07 10:42:00,33.1,16.4,30.29,East,99,3.6,3.6,50,0.01,RA,,0.01,WeatherDisplay:10.37,2013-03-07 16:42:00,
2013-03-07 10:47:00,32.7,16.1,30.29,ENE,74,3.5,3.6,50,0.01,CLR,,0.01,WeatherDisplay:10.37,2013-03-07 16:47:00,
2013-03-07 10:52:00,32.4,15.8,30.29,East,91,5.8,5.8,50,0.01,,,0.01,WeatherDisplay:10.37,2013-03-07 16:52:00,
2013-03-07 10:57:00,32.2,15.6,30.29,SE,125,3.5,3.5,50,0.01,,,0.01,WeatherDisplay:10.37,2013-03-07 16:57:00,
2013-03-07 11:03:00,32.4,15.8,30.29,East,82,3.5,3.5,50,0.01,,,0.01,WeatherDisplay:10.37,2013-03-07 17:03:00,
2013-03-07 11:08:00,32.9,16.3,30.29,East,87,2.3,0.0,50,0.01,,,0.01,WeatherDisplay:10.37,2013-03-07 17:08:00,
2013-03-07 11:13:00,33.6,16.9,30.29,ENE,74,5.8,5.8,50,0.01,,,0.01,WeatherDisplay:10.37,2013-03-07 17:13:00,
2013-03-07 11:18:00,34.0,17.3,30.29,NE,42,3.5,3.5,50,0.01,,,0.01,WeatherDisplay:10.37,2013-03-07 17:18:00,
2013-03-07 11:23:00,34.5,17.8,30.29,East,81,0.0,0.0,50,0.01,,,0.01,WeatherDisplay:10.37,2013-03-07 17:23:00,
2013-03-07 11:29:00,34.9,18.1,30.29,ENE,62,3.5,3.5,50,0.01,,,0.01,WeatherDisplay:10.37,2013-03-07 17:29:00,
2013-03-07 11:34:00,35.1,16.8,30.29,East,89,5.8,5.8,47,0.00,,,0.01,WeatherDisplay:10.37,2013-03-07 17:34:00,
2013-03-07 11:39:00,35.2,17.0,30.29,NE,55,3.1,0.0,47,0.00,,,0.01,WeatherDisplay:10.37,2013-03-07 17:39:00,
2013-03-07 11:44:00,35.6,17.3,30.29,East,88,2.7,0.0,47,0.00,,,0.01,WeatherDisplay:10.37,2013-03-07 17:44:00,
2013-03-07 11:49:00,35.4,17.2,30.29,East,79,4.0,4.0,47,0.00,,,0.01,WeatherDisplay:10.37,2013-03-07 17:49:00,
2013-03-07 11:54:00,35.1,16.8,30.29,East,98,4.6,4.6,47,0.00,,,0.01,WeatherDisplay:10.37,2013-03-07 17:54:00,
2013-03-07 12:00:00,34.9,16.7,30.29,WSW,244,3.5,0.0,47,0.00,,,0.01,WeatherDisplay:10.37,2013-03-07 18:00:00,
2013-03-07 12:05:00,35.2,17.0,30.29,SE,137,0.0,0.0,47,0.00,,,0.01,WeatherDisplay:10.37,2013-03-07 18:05:00,
2013-03-07 12:10:00,35.8,17.5,30.29,ENE,69,6.7,6.7,47,0.00,,,0.01,WeatherDisplay:10.37,2013-03-07 18:10:00,
2013-03-07 12:15:00,35.2,17.0,30.29,NNE,22,4.6,0.0,47,0.00,,,0.01,WeatherDisplay:10.37,2013-03-07 18:15:00,
2013-03-07 12:20:00,35.4,17.2,30.29,WNW,299,3.5,3.5,47,0.00,,,0.01,WeatherDisplay:10.37,2013-03-07 18:20:00,
2013-03-07 12:25:00,35.6,17.3,30.29,WNW,296,3.5,3.5,47,0.00,,,0.01,WeatherDisplay:10.37,2013-03-07 18:25:00,
2013-03-07 12:30:00,35.8,17.5,30.29,NW,326,3.5,3.5,47,0.00,,,0.01,WeatherDisplay:10.37,2013-03-07 18:30:00,
2013-03-07 12:35:00,36.1,17.8,30.29,West,276,2.3,0.0,47,0.00,,,0.01,WeatherDisplay:10.37,2013-03-07 18:35:00,
2013-03-07 12:41:00,36.7,18.3,30.29,ENE,62,3.5,3.5,47,0.00,,,0.01,WeatherDisplay:10.37,2013-03-07 18:41:00,
2013-03-07 12:46:00,36.9,18.5,30.29,East,82,3.5,0.0,47,0.00,,,0.01,WeatherDisplay:10.37,2013-03-07 18:46:00,
2013-03-07 12:51:00,37.0,17.1,30.26,NNW,334,3.5,3.5,44,0.00,,,0.01,WeatherDisplay:10.37,2013-03-07 18:51:00,
2013-03-07 12:56:00,37.2,17.3,30.26,NE,39,3.6,3.6,44,0.00,,,0.01,WeatherDisplay:10.37,2013-03-07 18:56:00,
2013-03-07 13:01:00,37.0,17.1,30.26,East,81,5.8,5.8,44,0.00,,,0.01,WeatherDisplay:10.37,2013-03-07 19:01:00,
2013-03-07 13:06:00,36.7,16.8,30.26,NNE,16,3.5,3.5,44,0.00,,,0.01,WeatherDisplay:10.37,2013-03-07 19:06:00,
2013-03-07 13:12:00,36.5,16.6,30.26,ENE,73,3.5,3.5,44,0.00,,,0.01,WeatherDisplay:10.37,2013-03-07 19:12:00,
2013-03-07 13:17:00,36.5,16.6,30.26,NE,37,3.5,0.0,44,0.00,,,0.01,WeatherDisplay:10.37,2013-03-07 19:17:00,
2013-03-07 13:22:00,36.7,16.8,30.26,North,7,3.5,3.5,44,0.00,,,0.01,WeatherDisplay:10.37,2013-03-07 19:22:00,
2013-03-07 13:27:00,36.7,16.8,30.26,North,11,4.6,4.6,44,0.00,,,0.01,WeatherDisplay:10.37,2013-03-07 19:27:00,
2013-03-07 13:32:00,36.7,16.8,30.26,ENE,65,3.5,3.5,44,0.00,,,0.01,WeatherDisplay:10.37,2013-03-07 19:32:00,
2013-03-07 13:37:00,36.7,16.8,30.26,NNE,30,3.5,3.5,44,0.00,,,0.01,WeatherDisplay:10.37,2013-03-07 19:37:00,
2013-03-07 13:43:00,36.9,17.0,30.26,NE,35,3.5,3.5,44,0.00,,,0.01,WeatherDisplay:10.37,2013-03-07 19:43:00,
2013-03-07 13:48:00,36.9,17.0,30.26,East,90,3.5,3.5,44,0.00,,,0.01,WeatherDisplay:10.37,2013-03-07 19:48:00,
2013-03-07 13:53:00,36.9,17.0,30.26,ENE,66,3.5,3.5,44,0.00,,,0.01,WeatherDisplay:10.37,2013-03-07 19:53:00,
2013-03-07 13:58:00,36.9,17.0,30.26,ENE,71,3.5,3.5,44,0.00,,,0.01,WeatherDisplay:10.37,2013-03-07 19:58:00,
2013-03-07 14:04:00,36.9,17.0,30.26,NNE,27,3.6,3.6,44,0.00,,,0.01,WeatherDisplay:10.37,2013-03-07 20:04:00,
2013-03-07 14:09:00,36.9,17.0,30.26,ENE,57,3.5,3.5,44,0.00,,,0.01,WeatherDisplay:10.37,2013-03-07 20:09:00,
2013-03-07 14:14:00,36.7,16.8,30.26,ENE,70,3.5,3.5,44,0.00,,,0.01,WeatherDisplay:10.37,2013-03-07 20:14:00,
2013-03-07 14:19:00,36.3,16.5,30.26,ENE,72,3.5,3.5,44,0.00,,,0.01,WeatherDisplay:10.37,2013-03-07 20:19:00,
2013-03-07 14:24:00,36.3,16.5,30.26,ESE,112,3.5,3.5,44,0.00,,,0.01,WeatherDisplay:10.37,2013-03-07 20:24:00,
2013-03-07 14:29:00,36.3,16.5,30.26,NNW,338,3.5,3.5,44,0.00,,,0.01,WeatherDisplay:10.37,2013-03-07 20:29:00,
2013-03-07 14:34:00,36.3,16.5,30.26,East,84,3.5,3.5,44,0.00,,,0.01,WeatherDisplay:10.37,2013-03-07 20:34:00,
2013-03-07 14:39:00,36.3,16.5,30.26,ENE,78,3.5,4.0,44,0.00,,,0.01,WeatherDisplay:10.37,2013-03-07 20:39:00,
2013-03-07 14:44:00,36.0,16.1,30.26,East,87,5.8,5.8,44,0.00,,,0.01,WeatherDisplay:10.37,2013-03-07 20:44:00,
2013-03-07 14:50:00,35.6,15.8,30.26,ESE,117,3.5,3.5,44,0.00,,,0.01,WeatherDisplay:10.37,2013-03-07 20:50:00,
2013-03-07 14:55:00,35.2,16.0,30.26,ESE,107,4.6,4.6,45,0.00,,,0.01,WeatherDisplay:10.37,2013-03-07 20:55:00,
2013-03-07 15:00:00,35.1,15.8,30.26,East,88,5.8,5.8,45,0.00,,,0.01,WeatherDisplay:10.37,2013-03-07 21:00:00,
2013-03-07 15:05:00,34.9,15.7,30.26,East,87,4.0,4.0,45,0.00,,,0.01,WeatherDisplay:10.37,2013-03-07 21:05:00,
2013-03-07 15:10:00,34.9,15.7,30.26,SE,136,3.5,3.5,45,0.00,,,0.01,WeatherDisplay:10.37,2013-03-07 21:10:00,
2013-03-07 15:16:00,34.9,15.7,30.26,ENE,77,0.0,0.0,45,0.00,,,0.01,WeatherDisplay:10.37,2013-03-07 21:16:00,
2013-03-07 15:21:00,34.9,15.7,30.26,ESE,105,2.3,0.0,45,0.00,,,0.01,WeatherDisplay:10.37,2013-03-07 21:21:00,
2013-03-07 15:26:00,35.1,15.8,30.26,ESE,106,4.6,4.6,45,0.00,,,0.01,WeatherDisplay:10.37,2013-03-07 21:26:00,
2013-03-07 15:32:00,35.1,15.8,30.26,East,85,2.3,0.0,45,0.00,,,0.01,WeatherDisplay:10.37,2013-03-07 21:32:00,
2013-03-07 15:37:00,35.1,15.8,30.26,ESE,112,0.0,0.0,45,0.00,,,0.01,WeatherDisplay:10.37,2013-03-07 21:37:00,
2013-03-07 15:42:00,35.2,16.0,30.26,East,89,3.5,3.5,45,0.00,,,0.01,WeatherDisplay:10.37,2013-03-07 21:42:00,
2013-03-07 15:47:00,35.2,16.0,30.26,East,80,6.3,6.3,45,0.00,,,0.01,WeatherDisplay:10.37,2013-03-07 21:47:00,
2013-03-07 15:52:00,34.9,15.7,30.26,East,84,4.6,4.6,45,0.00,,,0.01,WeatherDisplay:10.37,2013-03-07 21:52:00,
2013-03-07 15:57:00,34.7,15.5,30.26,ESE,107,2.3,2.3,45,0.00,,,0.01,WeatherDisplay:10.37,2013-03-07 21:57:00,
2013-03-07 16:02:00,34.5,15.3,30.26,East,83,3.5,3.5,45,0.00,,,0.01,WeatherDisplay:10.37,2013-03-07 22:02:00,
2013-03-07 16:08:00,34.3,15.2,30.26,East,93,3.5,3.5,45,0.00,,,0.01,WeatherDisplay:10.37,2013-03-07 22:08:00,
2013-03-07 16:13:00,34.2,15.0,30.26,East,92,3.5,3.6,45,0.00,,,0.01,WeatherDisplay:10.37,2013-03-07 22:13:00,
2013-03-07 16:18:00,34.0,14.8,30.23,East,92,5.8,5.8,45,0.00,,,0.01,WeatherDisplay:10.37,2013-03-07 22:18:00,
2013-03-07 16:23:00,34.0,14.8,30.23,ESE,117,3.5,3.5,45,0.00,,,0.01,WeatherDisplay:10.37,2013-03-07 22:23:00,
2013-03-07 16:28:00,34.0,14.8,30.23,East,86,5.8,5.8,45,0.00,,,0.01,WeatherDisplay:10.37,2013-03-07 22:28:00,
2013-03-07 16:33:00,34.0,14.8,30.26,East,99,3.5,3.6,45,0.00,,,0.01,WeatherDisplay:10.37,2013-03-07 22:33:00,
2013-03-07 16:38:00,33.8,14.7,30.26,East,98,4.6,4.6,45,0.00,,,0.01,WeatherDisplay:10.37,2013-03-07 22:38:00,
2013-03-07 16:44:00,33.6,14.5,30.26,ENE,69,3.5,3.5,45,0.00,,,0.01,WeatherDisplay:10.37,2013-03-07 22:44:00,
2013-03-07 16:49:00,33.3,14.2,30.26,ESE,119,3.5,3.5,45,0.00,,,0.01,WeatherDisplay:10.37,2013-03-07 22:49:00,
2013-03-07 16:54:00,33.1,14.0,30.26,East,87,3.5,3.5,45,0.00,,,0.01,WeatherDisplay:10.37,2013-03-07 22:54:00,
2013-03-07 16:59:00,32.7,13.7,30.26,ENE,76,3.6,3.6,45,0.00,,,0.01,WeatherDisplay:10.37,2013-03-07 22:59:00,
2013-03-07 17:05:00,32.5,13.5,30.26,East,101,0.0,0.0,45,0.00,,,0.01,WeatherDisplay:10.37,2013-03-07 23:05:00,
2013-03-07 17:10:00,32.2,13.2,30.26,NE,47,3.5,3.5,45,0.00,,,0.01,WeatherDisplay:10.37,2013-03-07 23:10:00,
2013-03-07 17:15:00,31.8,12.9,30.26,ENE,69,3.6,3.6,45,0.00,,,0.01,WeatherDisplay:10.37,2013-03-07 23:15:00,
2013-03-07 17:20:00,31.3,12.4,30.26,NE,49,3.5,3.5,45,0.00,,,0.01,WeatherDisplay:10.37,2013-03-07 23:20:00,
2013-03-07 17:25:00,30.9,12.0,30.26,NE,46,2.3,2.3,45,0.00,,,0.01,WeatherDisplay:10.37,2013-03-07 23:25:00,
2013-03-07 17:30:00,30.4,11.5,30.26,ENE,71,3.5,3.5,45,0.00,,,0.01,WeatherDisplay:10.37,2013-03-07 23:30:00,
2013-03-07 17:36:00,30.0,11.2,30.26,East,84,2.3,2.3,45,0.00,,,0.01,WeatherDisplay:10.37,2013-03-07 23:36:00,
2013-03-07 17:41:00,29.5,10.7,30.26,East,84,0.0,0.0,45,0.00,,,0.01,WeatherDisplay:10.37,2013-03-07 23:41:00,
2013-03-07 17:46:00,29.1,10.4,30.26,East,84,0.0,0.0,45,0.00,,,0.01,WeatherDisplay:10.37,2013-03-07 23:46:00,
2013-03-07 17:51:00,28.6,9.9,30.26,East,84,0.0,0.0,45,0.00,,,0.01,WeatherDisplay:10.37,2013-03-07 23:51:00,
2013-03-07 17:57:00,28.0,9.9,30.26,East,84,0.0,0.0,46,0.00,,,0.01,WeatherDisplay:10.37,2013-03-07 23:57:00,
2013-03-07 18:02:00,27.7,9.6,30.26,East,84,0.0,0.0,46,0.00,,,0.01,WeatherDisplay:10.37,2013-03-08 00:02:00,
2013-03-07 18:07:00,27.1,9.1,30.26,East,84,0.0,0.0,46,0.00,,,0.01,WeatherDisplay:10.37,2013-03-08 00:07:00,
2013-03-07 18:13:00,26.6,8.6,30.26,East,82,0.0,0.0,46,0.00,,,0.01,WeatherDisplay:10.37,2013-03-08 00:13:00,
2013-03-07 18:18:00,26.1,8.1,30.26,East,81,3.5,3.5,46,0.00,,,0.01,WeatherDisplay:10.37,2013-03-08 00:18:00,
2013-03-07 18:23:00,25.9,9.3,30.26,ENE,74,2.7,0.0,49,0.00,,,0.01,WeatherDisplay:10.37,2013-03-08 00:23:00,
2013-03-07 18:28:00,25.7,9.2,30.26,ENE,70,0.0,0.0,49,0.00,,,0.01,WeatherDisplay:10.37,2013-03-08 00:28:00,
2013-03-07 18:34:00,25.3,8.8,30.26,ENE,70,0.0,0.0,49,0.00,,,0.01,WeatherDisplay:10.37,2013-03-08 00:34:00,
2013-03-07 18:39:00,25.0,8.5,30.26,ENE,70,0.0,0.0,49,0.00,,,0.01,WeatherDisplay:10.37,2013-03-08 00:39:00,
2013-03-07 18:45:00,24.8,8.3,30.26,ENE,70,0.0,0.0,49,0.00,,,0.01,WeatherDisplay:10.37,2013-03-08 00:45:00,
2013-03-07 18:50:00,24.4,8.0,30.26,ENE,70,0.0,0.0,49,0.00,,,0.01,WeatherDisplay:10.37,2013-03-08 00:50:00,
2013-03-07 18:55:00,24.1,9.0,30.26,ENE,70,0.0,0.0,52,0.00,,,0.01,WeatherDisplay:10.37,2013-03-08 00:55:00,
2013-03-07 19:00:00,23.5,8.5,30.26,ENE,70,0.0,0.0,52,0.00,,,0.01,WeatherDisplay:10.37,2013-03-08 01:00:00,
2013-03-07 19:06:00,23.2,8.1,30.26,ENE,70,0.0,0.0,52,0.00,,,0.01,WeatherDisplay:10.37,2013-03-08 01:06:00,
2013-03-07 19:11:00,22.8,7.8,30.26,ENE,70,0.0,0.0,52,0.00,,,0.01,WeatherDisplay:10.37,2013-03-08 01:11:00,
2013-03-07 19:16:00,22.6,7.6,30.26,ENE,70,0.0,0.0,52,0.00,,,0.01,WeatherDisplay:10.37,2013-03-08 01:16:00,
2013-03-07 19:21:00,22.5,7.5,30.26,ENE,70,0.0,0.0,52,0.00,,,0.01,WeatherDisplay:10.37,2013-03-08 01:21:00,
2013-03-07 19:26:00,22.3,7.7,30.26,ENE,70,0.0,0.0,53,0.00,,,0.01,WeatherDisplay:10.37,2013-03-08 01:26:00,
2013-03-07 19:31:00,21.9,7.4,30.26,ENE,70,0.0,0.0,53,0.00,,,0.01,WeatherDisplay:10.37,2013-03-08 01:31:00,
2013-03-07 19:36:00,21.9,7.4,30.26,ENE,70,0.0,0.0,53,0.00,,,0.01,WeatherDisplay:10.37,2013-03-08 01:36:00,
2013-03-07 19:42:00,21.7,7.2,30.26,ENE,70,0.0,0.0,53,0.00,,,0.01,WeatherDisplay:10.37,2013-03-08 01:42:00,
2013-03-07 19:47:00,21.6,7.0,30.26,ENE,70,0.0,0.0,53,0.00,,,0.01,WeatherDisplay:10.37,2013-03-08 01:47:00,
2013-03-07 19:52:00,21.4,6.9,30.26,ENE,70,0.0,0.0,53,0.00,,,0.01,WeatherDisplay:10.37,2013-03-08 01:52:00,
2013-03-07 19:57:00,21.2,7.1,30.26,ENE,70,0.0,0.0,54,0.00,,,0.01,WeatherDisplay:10.37,2013-03-08 01:57:00,
2013-03-07 20:02:00,21.2,7.1,30.26,ENE,70,0.0,0.0,54,0.00,,,0.01,WeatherDisplay:10.37,2013-03-08 02:02:00,
2013-03-07 20:07:00,21.2,7.1,30.26,ESE,113,0.0,0.0,54,0.00,,,0.01,WeatherDisplay:10.37,2013-03-08 02:07:00,
2013-03-07 20:12:00,21.2,7.1,30.26,ESE,113,0.0,0.0,54,0.00,,,0.01,WeatherDisplay:10.37,2013-03-08 02:12:00,
2013-03-07 20:17:00,21.2,7.1,30.26,ESE,111,0.0,0.0,54,0.00,,,0.01,WeatherDisplay:10.37,2013-03-08 02:17:00,
2013-03-07 20:23:00,21.4,7.3,30.26,East,95,0.0,0.0,54,0.00,,,0.01,WeatherDisplay:10.37,2013-03-08 02:23:00,
2013-03-07 20:28:00,21.4,7.3,30.26,East,96,0.0,0.0,54,0.00,,,0.01,WeatherDisplay:10.37,2013-03-08 02:28:00,
2013-03-07 20:33:00,21.4,7.3,30.26,East,96,0.0,0.0,54,0.00,,,0.01,WeatherDisplay:10.37,2013-03-08 02:33:00,
2013-03-07 20:38:00,21.4,7.3,30.26,ESE,121,0.0,0.0,54,0.00,,,0.01,WeatherDisplay:10.37,2013-03-08 02:38:00,
2013-03-07 20:43:00,21.2,7.1,30.26,ESE,121,0.0,0.0,54,0.00,,,0.01,WeatherDisplay:10.37,2013-03-08 02:43:00,
2013-03-07 20:48:00,21.2,7.1,30.26,ESE,121,0.0,0.0,54,0.00,,,0.01,WeatherDisplay:10.37,2013-03-08 02:48:00,
2013-03-07 20:53:00,21.0,7.0,30.26,ESE,121,0.0,0.0,54,0.00,,,0.01,WeatherDisplay:10.37,2013-03-08 02:53:00,
2013-03-07 20:59:00,20.8,6.8,30.26,East,79,0.0,0.0,54,0.00,,,0.01,WeatherDisplay:10.37,2013-03-08 02:59:00,
2013-03-07 21:04:00,20.7,6.6,30.26,East,79,0.0,0.0,54,0.00,,,0.01,WeatherDisplay:10.37,2013-03-08 03:04:00,
2013-03-07 21:09:00,20.7,6.6,30.26,East,79,0.0,0.0,54,0.00,,,0.01,WeatherDisplay:10.37,2013-03-08 03:09:00,
2013-03-07 21:14:00,20.5,6.4,30.26,East,79,0.0,0.0,54,0.00,,,0.01,WeatherDisplay:10.37,2013-03-08 03:14:00,
2013-03-07 21:20:00,20.3,6.3,30.23,SE,144,0.0,0.0,54,0.00,,,0.01,WeatherDisplay:10.37,2013-03-08 03:20:00,
2013-03-07 21:25:00,20.3,6.3,30.23,SE,144,0.0,0.0,54,0.00,,,0.01,WeatherDisplay:10.37,2013-03-08 03:25:00,
2013-03-07 21:30:00,20.1,6.1,30.23,SE,144,0.0,0.0,54,0.00,,,0.01,WeatherDisplay:10.37,2013-03-08 03:30:00,
2013-03-07 21:35:00,19.9,5.9,30.26,SE,144,0.0,0.0,54,0.00,,,0.01,WeatherDisplay:10.37,2013-03-08 03:35:00,
2013-03-07 21:40:00,19.8,5.8,30.26,SE,144,0.0,0.0,54,0.00,,,0.01,WeatherDisplay:10.37,2013-03-08 03:40:00,
2013-03-07 21:45:00,19.6,5.6,30.26,SE,144,0.0,0.0,54,0.00,,,0.01,WeatherDisplay:10.37,2013-03-08 03:45:00,
2013-03-07 21:51:00,19.2,5.7,30.26,SE,135,0.0,0.0,55,0.00,,,0.01,WeatherDisplay:10.37,2013-03-08 03:51:00,
2013-03-07 21:56:00,19.0,5.5,30.26,SE,135,0.0,0.0,55,0.00,,,0.01,WeatherDisplay:10.37,2013-03-08 03:56:00,
2013-03-07 22:01:00,18.7,5.2,30.26,SE,135,0.0,0.0,55,0.00,,,0.01,WeatherDisplay:10.37,2013-03-08 04:01:00,
2013-03-07 22:06:00,18.5,5.0,30.26,ESE,117,0.0,0.0,55,0.00,,,0.01,WeatherDisplay:10.37,2013-03-08 04:06:00,
2013-03-07 22:11:00,18.7,5.2,30.26,East,84,0.0,0.0,55,0.00,,,0.01,WeatherDisplay:10.37,2013-03-08 04:11:00,
2013-03-07 22:18:00,18.7,5.2,30.23,East,84,0.0,0.0,55,0.00,,,0.01,WeatherDisplay:10.37,2013-03-08 04:18:00,
2013-03-07 22:23:00,18.5,5.4,30.23,East,84,0.0,0.0,56,0.00,,,0.01,WeatherDisplay:10.37,2013-03-08 04:23:00,
2013-03-07 22:28:00,18.3,5.2,30.23,East,84,0.0,0.0,56,0.00,,,0.01,WeatherDisplay:10.37,2013-03-08 04:28:00,
2013-03-07 22:33:00,18.3,5.2,30.23,East,84,0.0,0.0,56,0.00,,,0.01,WeatherDisplay:10.37,2013-03-08 04:33:00,
2013-03-07 22:38:00,18.1,5.1,30.23,East,101,0.0,0.0,56,0.00,,,0.01,WeatherDisplay:10.37,2013-03-08 04:38:00,
2013-03-07 22:44:00,18.1,5.1,30.23,East,101,0.0,0.0,56,0.00,,,0.01,WeatherDisplay:10.37,2013-03-08 04:44:00,
2013-03-07 22:49:00,18.0,5.3,30.23,East,101,0.0,0.0,57,0.00,,,0.01,WeatherDisplay:10.37,2013-03-08 04:49:00,
2013-03-07 22:54:00,18.0,5.3,30.23,SE,130,0.0,0.0,57,0.00,,,0.01,WeatherDisplay:10.37,2013-03-08 04:54:00,
2013-03-07 22:59:00,18.3,5.6,30.23,East,97,0.0,0.0,57,0.00,,,0.01,WeatherDisplay:10.37,2013-03-08 04:59:00,
2013-03-07 23:00:00,18.3,5.6,30.23,East,97,0.0,0.0,57,0.00,,,0.01,WeatherDisplay:10.37,2013-03-08 05:00:00,
2013-03-07 23:04:00,18.5,5.8,30.23,East,100,0.0,0.0,57,0.00,,,0.01,WeatherDisplay:10.37,2013-03-08 05:04:00,
2013-03-07 23:09:00,18.9,6.1,30.23,ESE,116,0.0,0.0,57,0.00,,,0.01,WeatherDisplay:10.37,2013-03-08 05:09:00,
2013-03-07 23:15:00,19.0,6.3,30.23,ESE,123,0.0,0.0,57,0.00,,,0.01,WeatherDisplay:10.37,2013-03-08 05:15:00,
2013-03-07 23:19:00,19.0,6.3,30.26,ESE,111,0.0,0.0,57,0.00,,,0.01,WeatherDisplay:10.37,2013-03-08 05:19:00,
2013-03-07 23:24:00,19.2,6.5,30.26,ESE,105,2.3,0.0,57,0.00,,,0.01,WeatherDisplay:10.37,2013-03-08 05:24:00,
2013-03-07 23:30:00,19.6,6.4,30.26,East,101,0.0,0.0,56,0.00,,,0.01,WeatherDisplay:10.37,2013-03-08 05:30:00,
2013-03-07 23:35:00,19.6,6.4,30.26,SE,124,3.5,3.5,56,0.00,,,0.01,WeatherDisplay:10.37,2013-03-08 05:35:00,
2013-03-07 23:40:00,19.6,6.4,30.26,East,101,0.0,0.0,56,0.00,,,0.01,WeatherDisplay:10.37,2013-03-08 05:40:00,
2013-03-07 23:45:00,19.6,6.4,30.26,East,101,0.0,0.0,56,0.00,,,0.01,WeatherDisplay:10.37,2013-03-08 05:45:00,
2013-03-07 23:50:00,19.4,6.2,30.26,East,101,0.0,0.0,56,0.00,,,0.01,WeatherDisplay:10.37,2013-03-08 05:50:00,
2013-03-07 23:55:00,19.0,5.9,30.26,East,101,0.0,0.0,56,0.00,,,0.01,WeatherDisplay:10.37,2013-03-08 05:55:00,